Time;durP1;ratioP1;P1;durP2;ratioP2;P2;SDS_P1;SDS_P2;PMS_P1;PMS_P2;Temp;Humidity;BMP_temperature;BMP_pressure;BME280_temperature;BME280_humidity;BME280_pressure;Samples;Min_cycle;Max_cycle;Signal;HPM_P1;HPM_P2
2022/03/30 00:01:20;;;;;;;;;43.00;38.75;;;;;12.84;62.17;99671.28;5014332;28;45486;-75
2022/03/30 00:03:46;;;;;;;;;41.50;38.50;;;;;12.80;62.28;99666.09;5016833;28;45489;-75
2022/03/30 00:06:11;;;;;;;;;44.75;39.25;;;;;12.81;61.85;99666.97;5003700;28;46205;-76
2022/03/30 00:08:38;;;;;;;;;44.25;39.00;;;;;12.77;61.86;99654.78;5006893;28;45407;-75
2022/03/30 00:11:05;;;;;;;;;50.00;39.50;;;;;12.74;62.59;99660.22;5007064;28;45470;-75
2022/03/30 00:13:30;;;;;;;;;58.00;40.00;;;;;12.73;62.61;99658.50;5006851;28;45465;-75
2022/03/30 00:15:56;;;;;;;;;45.75;37.50;;;;;12.72;62.77;99657.63;5005066;28;46025;-75
2022/03/30 00:18:21;;;;;;;;;56.25;42.00;;;;;12.55;62.38;99625.69;4998643;28;45452;-75
2022/03/30 00:20:47;;;;;;;;;48.75;39.75;;;;;12.69;62.99;99648.94;5004871;28;45422;-77
2022/03/30 00:23:13;;;;;;;;;41.25;36.00;;;;;12.66;62.86;99649.06;5013942;28;45368;-74
2022/03/30 00:25:38;;;;;;;;;46.75;39.75;;;;;12.65;63.19;99650.88;5002066;28;46370;-75
2022/03/30 00:28:04;;;;;;;;;47.25;39.25;;;;;12.62;63.58;99646.56;5000676;28;45289;-79
2022/03/30 00:30:30;;;;;;;;;51.75;43.00;;;;;12.62;63.80;99651.00;5007615;28;45530;-81
2022/03/30 00:32:55;;;;;;;;;44.75;41.25;;;;;12.59;63.57;99643.19;5012037;28;45458;-80
2022/03/30 00:35:21;;;;;;;;;50.00;42.00;;;;;12.55;63.31;99645.09;5005220;28;45314;-80
2022/03/30 00:37:46;;;;;;;;;34.50;30.50;;;;;12.51;63.99;99640.88;5014263;28;45601;-80
2022/03/30 00:40:14;;;;;;;;;50.25;41.50;;;;;12.48;64.01;99648.94;5004774;28;45477;-81
2022/03/30 00:42:40;;;;;;;;;56.00;43.75;;;;;12.44;64.14;99642.91;5006869;28;45348;-81
2022/03/30 00:45:11;;;;;;;;;45.75;39.00;;;;;12.38;64.17;99631.69;5014038;28;46572;-81
2022/03/30 00:47:37;;;;;;;;;62.00;46.25;;;;;12.37;64.45;99635.28;4999592;28;45438;-80
2022/03/30 00:50:05;;;;;;;;;54.75;43.00;;;;;12.16;64.91;99603.47;5013298;28;45490;-81
2022/03/30 00:52:30;;;;;;;;;54.75;43.25;;;;;12.31;64.89;99627.59;5007836;28;45500;-81
2022/03/30 00:54:57;;;;;;;;;51.50;43.00;;;;;12.32;65.56;99621.38;5003607;28;45407;-81
2022/03/30 00:57:24;;;;;;;;;54.50;43.00;;;;;12.31;65.72;99619.63;5010404;28;45482;-80
2022/03/30 00:59:50;;;;;;;;;52.75;45.50;;;;;12.25;65.93;99616.34;5006080;28;45551;-81
2022/03/30 01:02:17;;;;;;;;;52.75;45.25;;;;;12.20;65.72;99615.66;5008483;28;45397;-80
2022/03/30 01:04:45;;;;;;;;;52.00;46.00;;;;;12.15;65.71;99595.59;5011178;28;46425;-80
2022/03/30 01:07:10;;;;;;;;;61.00;48.25;;;;;12.21;65.75;99606.78;5002772;28;45426;-79
2022/03/30 01:09:36;;;;;;;;;50.00;43.50;;;;;12.19;65.78;99598.03;5003015;28;45548;-81
2022/03/30 01:12:03;;;;;;;;;62.00;44.50;;;;;12.14;66.36;99589.41;5000064;28;45428;-81
2022/03/30 01:14:29;;;;;;;;;53.50;43.25;;;;;12.15;66.70;99587.66;5008757;28;45447;-81
2022/03/30 01:16:54;;;;;;;;;50.50;45.25;;;;;12.14;66.46;99593.84;5006516;28;45364;-80
2022/03/30 01:19:21;;;;;;;;;62.00;48.00;;;;;12.13;66.87;99592.13;5008067;28;45515;-80
2022/03/30 01:21:49;;;;;;;;;52.00;45.00;;;;;12.12;66.77;99596.56;5003654;28;45505;-81
2022/03/30 01:24:14;;;;;;;;;33.50;28.75;;;;;12.10;67.00;99595.78;5008907;28;46271;-81
2022/03/30 01:26:41;;;;;;;;;53.50;46.75;;;;;12.13;67.06;99600.97;5028214;28;45419;-81
2022/03/30 01:34:36;;;;;;;;;58.75;49.00;;;;;12.09;67.36;99576.38;5014892;28;45554;-80
2022/03/30 01:37:06;;;;;;;;;55.50;45.00;;;;;12.11;67.15;99578.94;5008726;28;45588;-80
2022/03/30 01:39:32;;;;;;;;;55.25;45.75;;;;;12.13;67.28;99574.47;5005681;28;46157;-80
2022/03/30 01:41:58;;;;;;;;;57.25;45.25;;;;;12.13;67.57;99573.59;5012384;28;45723;-80
2022/03/30 01:44:24;;;;;;;;;51.00;44.00;;;;;12.14;67.40;99573.53;5000189;28;46247;-80
2022/03/30 01:46:50;;;;;;;;;60.00;45.25;;;;;12.14;67.38;99570.88;5012690;28;45497;-79
2022/03/30 01:49:21;;;;;;;;;54.00;46.00;;;;;12.15;67.52;99572.59;5005817;28;45402;-80
2022/03/30 01:51:46;;;;;;;;;65.50;48.00;;;;;12.13;67.32;99563.88;4997305;28;45567;-81
2022/03/30 01:54:12;;;;;;;;;62.25;48.50;;;;;12.15;67.34;99567.31;5005484;28;45363;-80
2022/03/30 01:56:37;;;;;;;;;67.50;49.50;;;;;12.17;67.39;99562.78;5001660;28;45487;-80
2022/03/30 01:59:02;;;;;;;;;51.25;45.25;;;;;12.18;67.67;99559.22;5005204;28;45541;-80
2022/03/30 02:01:28;;;;;;;;;58.75;46.75;;;;;12.17;67.67;99560.16;5007010;28;45367;-81
2022/03/30 02:03:56;;;;;;;;;60.00;46.00;;;;;12.16;67.80;99558.44;5005618;28;46191;-81
2022/03/30 02:06:24;;;;;;;;;55.75;46.00;;;;;12.14;67.25;99549.69;5009072;28;45557;-82
2022/03/30 02:08:49;;;;;;;;;64.00;48.50;;;;;12.13;67.97;99544.44;5010952;28;44768;-82
2022/03/30 02:11:14;;;;;;;;;50.25;43.25;;;;;12.11;67.57;99547.16;5013385;28;45636;-82
2022/03/30 02:13:40;;;;;;;;;59.75;49.25;;;;;12.07;68.17;99543.78;4999814;28;46182;-81
2022/03/30 02:16:05;;;;;;;;;54.50;48.75;;;;;12.04;67.97;99533.34;5003715;28;45335;-80
2022/03/30 02:18:32;;;;;;;;;59.00;48.00;;;;;12.01;68.33;99537.88;5006532;28;45406;-80
2022/03/30 02:20:57;;;;;;;;;50.00;43.00;;;;;11.86;68.53;99521.69;5005706;28;45321;-81
2022/03/30 02:23:23;;;;;;;;;65.00;49.50;;;;;11.89;68.49;99526.84;5006710;28;45538;-81
2022/03/30 02:25:48;;;;;;;;;64.00;47.00;;;;;11.84;68.81;99520.91;5007639;28;45599;-81
2022/03/30 02:28:13;;;;;;;;;55.00;44.50;;;;;11.85;69.05;99527.06;5011966;28;45502;-80
2022/03/30 02:30:39;;;;;;;;;63.50;50.25;;;;;11.80;69.19;99518.44;5006824;28;45451;-82
2022/03/30 02:33:04;;;;;;;;;54.25;46.25;;;;;11.80;69.19;99523.75;5011349;28;46751;-81
2022/03/30 02:35:29;;;;;;;;;59.75;45.25;;;;;11.80;69.23;99526.41;5014947;28;45462;-80
2022/03/30 02:37:56;;;;;;;;;52.00;45.75;;;;;11.76;69.12;99517.69;4996242;28;45390;-81
2022/03/30 02:40:22;;;;;;;;;61.50;44.50;;;;;11.71;69.52;99503.81;5002675;28;45579;-80
2022/03/30 02:42:48;;;;;;;;;59.25;48.50;;;;;11.76;69.51;99517.69;5001141;28;45678;-79
2022/03/30 02:45:13;;;;;;;;;60.75;45.25;;;;;11.74;69.40;99508.97;4995044;28;45480;-81
2022/03/30 02:50:22;;;;;;;;;64.00;50.00;;;;;11.73;69.94;99510.75;5013968;28;45422;-77
2022/03/30 02:52:48;;;;;;;;;55.25;48.00;;;;;11.72;70.07;99509.03;5003631;28;46085;-76
2022/03/30 02:55:13;;;;;;;;;60.75;48.25;;;;;11.68;69.97;99501.28;4996677;28;45426;-75
2022/03/30 02:57:40;;;;;;;;;60.00;49.00;;;;;11.70;70.19;99507.38;4996774;28;45600;-76
2022/03/30 03:00:07;;;;;;;;;64.00;51.00;;;;;11.69;70.11;99503.00;4996623;28;45399;-75
2022/03/30 03:02:34;;;;;;;;;64.50;48.00;;;;;11.70;70.15;99499.44;5014631;28;46204;-76
2022/03/30 03:04:59;;;;;;;;;65.50;50.00;;;;;11.68;70.20;99504.78;5001204;28;45396;-75
2022/03/30 03:07:25;;;;;;;;;60.00;47.50;;;;;11.68;70.26;99503.94;5004540;28;45411;-76
2022/03/30 03:09:50;;;;;;;;;64.50;51.50;;;;;11.68;70.39;99498.66;5013905;28;45733;-75
2022/03/30 03:12:16;;;;;;;;;68.50;53.50;;;;;11.66;70.72;99495.19;5008233;28;45593;-76
2022/03/30 03:14:42;;;;;;;;;68.50;52.50;;;;;11.65;70.38;99498.78;5010003;28;45489;-76
2022/03/30 03:17:07;;;;;;;;;63.00;50.75;;;;;11.65;70.59;99501.41;4997351;28;45431;-75
2022/03/30 03:19:32;;;;;;;;;72.00;52.50;;;;;11.66;71.00;99500.47;5013286;28;45658;-76
2022/03/30 03:21:58;;;;;;;;;67.00;53.25;;;;;11.67;71.22;99502.19;5006956;28;47685;-75
2022/03/30 03:24:23;;;;;;;;;60.75;47.75;;;;;11.67;71.06;99496.91;5013716;28;45318;-75
2022/03/30 03:26:51;;;;;;;;;62.00;50.00;;;;;11.67;71.06;99491.63;5014796;28;45360;-76
2022/03/30 03:29:16;;;;;;;;;63.00;49.25;;;;;11.67;71.41;99489.81;5006592;28;45336;-75
2022/03/30 03:31:42;;;;;;;;;61.00;49.00;;;;;11.68;70.95;99491.56;4999255;28;46052;-75
2022/03/30 03:34:08;;;;;;;;;62.00;49.25;;;;;11.65;70.86;99480.25;5011134;28;45335;-75
2022/03/30 03:36:34;;;;;;;;;67.00;50.00;;;;;11.70;70.86;99479.09;4996931;28;45432;-75
2022/03/30 03:39:00;;;;;;;;;64.25;46.75;;;;;11.73;71.15;99486.06;5005207;28;45507;-76
2022/03/30 03:41:25;;;;;;;;;66.25;51.50;;;;;11.64;71.31;99466.13;5002354;28;45437;-75
2022/03/30 03:43:51;;;;;;;;;71.75;54.75;;;;;11.72;71.05;99479.03;5005004;28;45445;-75
2022/03/30 03:46:16;;;;;;;;;68.25;53.00;;;;;11.68;71.52;99482.75;5009268;28;45521;-75
2022/03/30 03:48:41;;;;;;;;;71.75;53.50;;;;;11.66;71.40;99477.53;5015384;28;45617;-76
2022/03/30 03:51:07;;;;;;;;;66.25;50.00;;;;;11.70;71.41;99480.91;5007847;28;46660;-76
2022/03/30 03:53:34;;;;;;;;;66.75;51.75;;;;;11.70;71.90;99478.25;5006850;28;45466;-76
2022/03/30 03:56:02;;;;;;;;;67.00;54.50;;;;;11.67;71.74;99481.03;5004858;28;45474;-77
2022/03/30 03:58:27;;;;;;;;;69.00;52.25;;;;;11.65;71.57;99472.31;5010124;28;45354;-76
2022/03/30 04:00:52;;;;;;;;;57.50;49.00;;;;;11.67;71.76;99471.28;5001826;28;46539;-76
2022/03/30 04:03:18;;;;;;;;;69.00;54.50;;;;;11.67;71.90;99473.94;4996995;28;45383;-75
2022/03/30 04:05:43;;;;;;;;;68.00;52.00;;;;;11.65;71.77;99472.31;4999705;28;45450;-75
2022/03/30 04:08:10;;;;;;;;;63.00;52.50;;;;;11.62;71.77;99467.13;5005552;28;45439;-75
2022/03/30 04:10:36;;;;;;;;;69.75;57.25;;;;;11.66;71.66;99468.72;5008442;28;45399;-76
2022/03/30 04:13:06;;;;;;;;;69.25;56.00;;;;;11.64;71.64;99475.88;5011417;28;45471;-75
2022/03/30 04:15:31;;;;;;;;;66.75;50.50;;;;;11.65;71.51;99472.31;5016743;28;45406;-76
2022/03/30 04:17:57;;;;;;;;;61.50;49.75;;;;;11.61;71.77;99468.91;5006058;28;45489;-76
2022/03/30 04:20:23;;;;;;;;;61.00;49.25;;;;;11.62;71.79;99473.28;4997516;28;45486;-76
2022/03/30 04:22:49;;;;;;;;;67.50;53.25;;;;;11.61;71.88;99473.34;4998998;28;45507;-76
2022/03/30 04:25:14;;;;;;;;;69.75;56.00;;;;;11.62;71.75;99467.13;5003538;28;45490;-77
2022/03/30 04:27:45;;;;;;;;;64.75;53.00;;;;;11.65;71.94;99472.31;5007633;28;45435;-76
2022/03/30 04:30:10;;;;;;;;;70.25;55.00;;;;;11.64;71.78;99465.28;5004170;28;46613;-76
2022/03/30 04:32:36;;;;;;;;;71.25;54.50;;;;;11.66;71.82;99463.41;5013033;28;45639;-76
2022/03/30 04:35:01;;;;;;;;;74.00;53.75;;;;;11.65;71.86;99457.28;5015576;28;45345;-76
2022/03/30 04:37:26;;;;;;;;;65.25;50.75;;;;;11.65;72.10;99459.06;5004383;28;45440;-76
2022/03/30 04:39:53;;;;;;;;;69.75;55.50;;;;;11.67;71.85;99465.16;5006566;28;45529;-77
2022/03/30 04:42:20;;;;;;;;;73.75;57.75;;;;;11.68;71.93;99456.28;5001678;28;45507;-75
2022/03/30 04:44:46;;;;;;;;;73.00;56.75;;;;;11.69;71.73;99458.00;4994362;28;45521;-76
2022/03/30 04:47:11;;;;;;;;;71.25;57.25;;;;;11.69;71.64;99450.94;5002088;28;45444;-75
2022/03/30 04:49:37;;;;;;;;;72.75;53.50;;;;;11.70;71.88;99457.06;4994729;28;45762;-76
2022/03/30 04:52:02;;;;;;;;;66.75;53.25;;;;;11.69;71.60;99442.13;4996208;28;45381;-75
2022/03/30 04:54:28;;;;;;;;;69.50;54.25;;;;;11.75;71.20;99444.50;5000180;28;45497;-77
2022/03/30 04:56:54;;;;;;;;;69.75;50.00;;;;;11.76;71.25;99448.88;5014503;28;45415;-76
2022/03/30 04:59:19;;;;;;;;;69.00;54.75;;;;;11.75;71.31;99441.84;4992090;28;47404;-76
2022/03/30 05:01:44;;;;;;;;;63.00;52.00;;;;;11.74;71.38;99441.00;5009313;28;45479;-76
2022/03/30 05:04:10;;;;;;;;;68.50;52.00;;;;;11.72;71.35;99437.56;5011069;28;45752;-76
2022/03/30 05:06:35;;;;;;;;;69.00;56.00;;;;;11.74;71.17;99434.84;5001687;28;45273;-76
2022/03/30 05:09:01;;;;;;;;;69.50;56.25;;;;;11.75;70.97;99436.56;5004257;28;45547;-75
2022/03/30 05:11:26;;;;;;;;;70.50;54.50;;;;;11.76;71.07;99438.28;4995983;28;45580;-76
2022/03/30 05:13:51;;;;;;;;;74.75;56.25;;;;;11.75;71.23;99431.25;5009267;28;45561;-75
2022/03/30 05:16:17;;;;;;;;;71.50;56.50;;;;;11.75;71.41;99431.25;5008450;28;45573;-74
2022/03/30 05:18:42;;;;;;;;;67.25;53.25;;;;;11.75;71.18;99439.19;4998335;28;45581;-76
2022/03/30 05:21:08;;;;;;;;;67.75;54.00;;;;;11.73;70.78;99433.13;4993687;28;45597;-76
2022/03/30 05:23:36;;;;;;;;;67.00;51.75;;;;;11.73;70.90;99433.97;5007646;28;45606;-76
2022/03/30 05:26:05;;;;;;;;;68.50;54.75;;;;;11.76;70.61;99440.09;4996101;28;45426;-76
2022/03/30 05:28:31;;;;;;;;;77.25;56.75;;;;;11.74;70.82;99432.22;5003628;28;46110;-76
2022/03/30 05:30:56;;;;;;;;;78.50;58.75;;;;;11.77;70.99;99432.06;5005169;28;45443;-75
2022/03/30 05:33:22;;;;;;;;;67.25;54.25;;;;;11.78;70.81;99438.22;4996241;28;45546;-76
2022/03/30 05:35:51;;;;;;;;;74.00;53.75;;;;;11.65;70.30;99429.97;5001173;28;45509;-76
2022/03/30 05:38:16;;;;;;;;;75.00;56.50;;;;;11.76;70.37;99440.09;4994984;28;45513;-76
2022/03/30 05:40:42;;;;;;;;;72.00;57.50;;;;;11.76;70.39;99440.94;5008798;28;45449;-76
2022/03/30 05:43:08;;;;;;;;;68.50;53.75;;;;;11.78;70.65;99439.09;4993735;28;45461;-76
2022/03/30 05:45:34;;;;;;;;;73.75;58.00;;;;;11.75;71.37;99439.19;4993737;28;45490;-75
2022/03/30 05:48:00;;;;;;;;;68.25;52.00;;;;;11.69;72.02;99435.06;4995669;28;45487;-77
2022/03/30 05:50:25;;;;;;;;;68.75;56.50;;;;;11.73;72.64;99436.63;4993682;28;45382;-76
2022/03/30 05:52:52;;;;;;;;;72.25;56.25;;;;;11.74;72.53;99441.00;4997950;28;45384;-76
2022/03/30 05:55:18;;;;;;;;;68.00;54.00;;;;;11.76;72.08;99442.72;4999504;28;45477;-76
2022/03/30 05:57:43;;;;;;;;;69.33;56.00;;;;;11.74;72.26;99445.44;5001412;28;45613;-76
2022/03/30 06:00:10;;;;;;;;;75.75;55.75;;;;;11.76;71.94;99442.72;4998713;28;45482;-76
2022/03/30 06:02:37;;;;;;;;;65.00;55.00;;;;;11.73;72.18;99433.97;5004487;28;45544;-75
2022/03/30 06:05:03;;;;;;;;;27.75;23.75;;;;;11.77;71.68;99444.44;4998881;28;45651;-76
2022/03/30 06:07:29;;;;;;;;;71.75;56.25;;;;;11.78;72.29;99443.50;5001059;28;45470;-75
2022/03/30 06:09:55;;;;;;;;;71.25;53.25;;;;;11.79;73.25;99442.59;5007856;28;45416;-76
2022/03/30 06:12:23;;;;;;;;;72.50;57.25;;;;;11.79;72.74;99453.19;4999794;28;45564;-76
2022/03/30 06:14:48;;;;;;;;;74.50;56.25;;;;;11.79;72.92;99455.84;5001160;28;45466;-76
2022/03/30 06:17:15;;;;;;;;;76.00;58.00;;;;;11.80;72.36;99460.22;5009279;28;46117;-74
2022/03/30 06:19:40;;;;;;;;;71.75;56.25;;;;;11.78;73.15;99454.09;5008057;28;45406;-76
2022/03/30 06:22:10;;;;;;;;;78.00;60.00;;;;;11.74;73.10;99445.44;5014326;28;45365;-77
2022/03/30 06:24:37;;;;;;;;;69.00;55.00;;;;;11.79;73.36;99453.19;5010489;28;45315;-75
2022/03/30 06:27:04;;;;;;;;;83.67;60.67;;;;;11.80;72.86;99453.13;5005616;28;45508;-77
2022/03/30 06:29:31;;;;;;;;;80.00;63.00;;;;;11.82;72.74;99453.91;5002765;28;45483;-76
2022/03/30 06:31:56;;;;;;;;;82.25;61.25;;;;;11.86;72.63;99458.16;5013270;28;45446;-75
2022/03/30 06:34:22;;;;;;;;;73.00;55.25;;;;;11.87;72.71;99456.34;5019385;28;45363;-76
2022/03/30 06:36:47;;;;;;;;;71.75;57.00;;;;;11.88;72.25;99448.34;5011124;28;45438;-76
2022/03/30 06:39:14;;;;;;;;;71.75;54.25;;;;;11.93;72.92;99456.13;5003120;28;45446;-77
2022/03/30 06:41:40;;;;;;;;;79.00;60.50;;;;;11.95;72.77;99466.66;5017445;28;45538;-75
2022/03/30 06:44:05;;;;;;;;;77.75;57.25;;;;;11.94;72.55;99459.66;5011805;28;45446;-76
2022/03/30 06:46:37;;;;;;;;;74.50;58.75;;;;;11.95;72.41;99464.00;5006614;28;45482;-77
2022/03/30 06:49:03;;;;;;;;;72.75;57.75;;;;;11.97;72.46;99459.50;5008129;28;45391;-77
2022/03/30 06:51:30;;;;;;;;;69.50;55.75;;;;;11.96;72.67;99455.13;5005219;28;45571;-84
2022/03/30 06:53:55;;;;;;;;;77.25;57.50;;;;;11.98;72.69;99462.09;5015060;28;45441;-77
2022/03/30 06:56:20;;;;;;;;;71.50;57.25;;;;;11.97;72.56;99462.16;5004341;28;46090;-77
2022/03/30 06:58:46;;;;;;;;;76.75;57.50;;;;;11.97;72.67;99459.50;5011122;28;45589;-82
2022/03/30 07:01:14;;;;;;;;;69.00;54.00;;;;;11.96;72.92;99461.28;5010088;28;45466;-82
2022/03/30 07:03:40;;;;;;;;;70.50;56.25;;;;;11.98;73.37;99463.88;5015915;28;45472;-81
2022/03/30 07:06:05;;;;;;;;;76.75;58.75;;;;;11.98;72.93;99461.22;5008770;28;45415;-81
2022/03/30 07:11:14;;;;;;;;;72.75;55.25;;;;;12.01;73.70;99458.44;5015910;28;45490;-80
2022/03/30 07:13:40;;;;;;;;;68.00;53.75;;;;;11.95;73.43;99462.22;5038582;28;45661;-81
2022/03/30 07:16:05;;;;;;;;;62.75;49.25;;;;;11.91;74.38;99458.81;5020332;28;45546;-81
2022/03/30 07:18:31;;;;;;;;;78.25;60.00;;;;;11.81;75.42;99459.25;5009586;28;45604;-81
2022/03/30 07:20:56;;;;;;;;;70.50;54.00;;;;;11.65;76.41;99436.09;5009285;28;45871;-82
2022/03/30 07:23:23;;;;;;;;;65.75;51.75;;;;;11.74;76.94;99471.91;5012365;28;45454;-81
2022/03/30 07:25:50;;;;;;;;;74.00;59.25;;;;;11.69;77.38;99468.56;5008330;28;45482;-80
2022/03/30 07:28:16;;;;;;;;;70.75;58.00;;;;;11.66;77.18;99461.66;5010290;28;45470;-79
2022/03/30 07:30:43;;;;;;;;;81.00;60.00;;;;;11.56;76.93;99447.06;5009059;28;45383;-80
2022/03/30 07:33:09;;;;;;;;;75.50;59.25;;;;;11.55;77.52;99456.81;5011575;28;45266;-75
2022/03/30 07:35:34;;;;;;;;;53.75;42.75;;;;;11.46;77.80;99445.72;4998792;28;45497;-76
2022/03/30 07:38:00;;;;;;;;;76.00;60.75;;;;;11.45;78.17;99455.47;5022769;28;45502;-76
2022/03/30 07:40:27;;;;;;;;;74.75;58.25;;;;;11.41;78.56;99456.50;5002522;28;45515;-79
2022/03/30 07:42:54;;;;;;;;;77.00;59.33;;;;;11.38;78.71;99456.63;5007314;28;45342;-79
2022/03/30 07:45:19;;;;;;;;;75.50;58.50;;;;;11.38;78.69;99454.00;5006543;28;45940;-79
2022/03/30 07:47:45;;;;;;;;;82.50;59.00;;;;;11.27;78.97;99448.28;4999805;28;45679;-75
2022/03/30 07:50:12;;;;;;;;;75.00;58.75;;;;;11.27;79.13;99457.06;4997104;28;45468;-76
2022/03/30 07:52:38;;;;;;;;;79.75;62.25;;;;;11.22;79.36;99452.88;5004577;28;45736;-76
2022/03/30 07:55:06;;;;;;;;;74.75;59.00;;;;;11.25;79.60;99464.22;5010647;28;45489;-75
2022/03/30 07:57:36;;;;;;;;;68.75;52.50;;;;;11.27;79.81;99461.50;5011855;28;45451;-75
2022/03/30 08:00:06;;;;;;;;;74.75;61.00;;;;;11.20;79.84;99455.59;4999642;28;45362;-75
2022/03/30 08:02:32;;;;;;;;;71.25;55.25;;;;;11.27;79.58;99461.50;5022261;28;45617;-75
2022/03/30 08:04:57;;;;;;;;;70.75;54.00;;;;;11.23;79.70;99466.03;5007107;28;46546;-77
2022/03/30 08:07:26;;;;;;;;;69.25;56.25;;;;;11.25;79.44;99466.88;5012230;28;45457;-76
2022/03/30 08:09:51;;;;;;;;;51.25;46.00;;;;;11.26;79.02;99459.78;5002738;28;45396;-80
2022/03/30 08:12:17;;;;;;;;;69.25;57.50;;;;;11.29;78.74;99459.66;5004884;28;45290;-79
2022/03/30 08:14:43;;;;;;;;;75.25;59.50;;;;;11.26;79.06;99463.28;5000192;28;46278;-80
2022/03/30 08:17:10;;;;;;;;;76.00;60.75;;;;;11.26;79.91;99462.44;5009853;28;45341;-80
2022/03/30 08:19:36;;;;;;;;;81.00;60.50;;;;;11.18;81.04;99454.81;4998943;28;45475;-80
2022/03/30 08:24:46;;;;;;;;;79.00;62.25;;;;;11.16;82.18;99475.19;5004245;28;45761;-80
2022/03/30 08:27:17;;;;;;;;;72.25;55.00;;;;;11.12;81.37;99469.13;5010812;28;45542;-80
2022/03/30 08:29:46;;;;;;;;;67.00;54.00;;;;;11.15;82.14;99470.78;5006837;28;45562;-80
2022/03/30 08:32:16;;;;;;;;;69.50;55.25;;;;;11.09;83.15;99466.59;5007548;28;45390;-80
2022/03/30 08:34:43;;;;;;;;;76.00;57.75;;;;;11.07;83.15;99460.53;5003623;28;45395;-78
2022/03/30 08:37:10;;;;;;;;;78.25;61.00;;;;;11.04;83.77;99452.72;4988647;28;45565;-80
2022/03/30 08:39:35;;;;;;;;;71.25;58.50;;;;;11.08;83.88;99456.94;4997875;28;45439;-80
2022/03/30 08:42:04;;;;;;;;;72.50;54.75;;;;;11.09;83.76;99456.03;5004130;28;45427;-79
2022/03/30 08:44:32;;;;;;;;;69.75;55.00;;;;;11.12;84.13;99461.19;4997573;28;46389;-79
2022/03/30 08:46:59;;;;;;;;;72.25;54.75;;;;;11.13;83.78;99464.69;5005982;28;45435;-80
2022/03/30 08:49:24;;;;;;;;;75.25;56.25;;;;;11.14;84.25;99455.84;5010054;28;45470;-80
2022/03/30 08:51:52;;;;;;;;;65.75;53.25;;;;;11.24;84.28;99466.94;4994748;28;45507;-79
2022/03/30 08:54:19;;;;;;;;;64.75;49.50;;;;;11.14;84.36;99448.75;5000091;28;46201;-80
2022/03/30 08:56:45;;;;;;;;;69.25;54.25;;;;;11.23;83.37;99454.63;5011758;28;45513;-79
2022/03/30 08:59:16;;;;;;;;;67.50;54.00;;;;;11.26;83.54;99465.06;4997843;28;45380;-79
2022/03/30 09:01:43;;;;;;;;;66.75;55.75;;;;;11.27;83.26;99465.00;4998644;28;45484;-79
2022/03/30 09:04:12;;;;;;;;;63.25;50.00;;;;;11.32;83.26;99462.19;5009087;28;46176;-79
2022/03/30 09:06:46;;;;;;;;;74.00;53.50;;;;;11.41;83.74;99467.09;4998512;28;45374;-79
2022/03/30 09:09:14;;;;;;;;;77.25;61.50;;;;;11.47;83.31;99458.91;5006671;28;45489;-80
2022/03/30 09:11:53;;;;;;;;;70.75;55.75;;;;;11.47;82.26;99461.53;5014282;28;46037;-78
2022/03/30 09:14:20;;;;;;;;;68.00;53.50;;;;;11.46;80.38;99467.75;5011659;28;46415;-79
2022/03/30 09:16:48;;;;;;;;;71.50;54.25;;;;;11.55;80.85;99466.50;5003554;28;45489;-79
2022/03/30 09:19:36;;;;;;;;;74.00;56.50;;;;;11.61;79.95;99460.13;4992332;28;45299;-77
2022/03/30 09:22:16;;;;;;;;;68.25;52.50;;;;;11.69;80.00;99458.88;4995569;28;45652;-79
2022/03/30 09:24:41;;;;;;;;;73.25;57.75;;;;;11.85;79.78;99464.38;4995503;28;45549;-79
2022/03/30 09:27:10;;;;;;;;;76.50;59.75;;;;;11.98;78.62;99464.75;5001800;28;45392;-79
2022/03/30 09:29:41;;;;;;;;;70.50;55.75;;;;;12.09;77.51;99456.31;4997102;28;45533;-79
2022/03/30 09:32:08;;;;;;;;;68.50;53.25;;;;;12.31;78.60;99447.41;5002252;28;45534;-79
2022/03/30 09:34:35;;;;;;;;;74.75;54.50;;;;;12.49;78.41;99427.19;5003007;28;45422;-80
2022/03/30 09:37:02;;;;;;;;;72.25;58.00;;;;;12.88;76.76;99442.16;5008362;28;45411;-81
2022/03/30 09:39:33;;;;;;;;;75.25;58.00;;;;;13.24;73.72;99449.25;5001115;28;45457;-78
2022/03/30 09:42:00;;;;;;;;;70.25;58.25;;;;;13.42;72.22;99455.50;4995598;28;45516;-78
2022/03/30 09:44:29;;;;;;;;;72.00;52.75;;;;;13.61;71.47;99448.34;5000757;28;45513;-79
2022/03/30 09:47:05;;;;;;;;;72.75;56.25;;;;;13.79;72.67;99446.56;5004404;28;45449;-79
2022/03/30 09:49:43;;;;;;;;;73.50;58.25;;;;;13.97;71.32;99428.81;4993736;28;45446;-80
2022/03/30 09:52:11;;;;;;;;;73.00;56.00;;;;;14.17;70.65;99446.34;4998210;28;45630;-79
2022/03/30 09:54:52;;;;;;;;;71.25;57.25;;;;;14.28;69.50;99445.78;5011339;28;46616;-79
2022/03/30 09:57:22;;;;;;;;;70.75;56.25;;;;;14.31;69.99;99440.31;5016238;28;45330;-79
2022/03/30 09:59:59;;;;;;;;;73.00;58.75;;;;;14.33;68.16;99445.53;5030045;28;45482;-76
2022/03/30 10:02:34;;;;;;;;;79.00;56.00;;;;;14.13;68.62;99426.19;4997954;28;45379;-75
2022/03/30 10:05:00;;;;;;;;;71.25;51.50;;;;;14.28;68.01;99445.78;4992580;28;46236;-77
2022/03/30 10:07:27;;;;;;;;;73.75;56.00;;;;;14.34;68.37;99453.44;5007359;28;45492;-77
2022/03/30 10:09:52;;;;;;;;;70.50;55.25;;;;;14.31;68.86;99442.97;4991980;28;45673;-76
2022/03/30 10:12:19;;;;;;;;;71.00;54.50;;;;;14.31;67.70;99440.31;4991717;28;45514;-76
2022/03/30 10:14:48;;;;;;;;;70.25;47.00;;;;;14.37;67.14;99433.81;5006353;28;45416;-77
2022/03/30 10:17:15;;;;;;;;;67.50;53.00;;;;;14.44;67.36;99429.88;5010307;28;45455;-75
2022/03/30 10:19:46;;;;;;;;;68.50;56.50;;;;;14.56;66.15;99438.97;5013887;28;45745;-80
2022/03/30 10:22:36;;;;;;;;;70.75;52.50;;;;;14.68;65.94;99440.16;5002978;28;45547;-77
2022/03/30 10:25:08;;;;;;;;;66.50;53.00;;;;;14.83;65.38;99435.78;4999981;28;45756;-79
2022/03/30 10:27:51;;;;;;;;;66.25;53.25;;;;;14.96;65.12;99430.66;5000034;28;45464;-77
2022/03/30 10:30:31;;;;;;;;;66.50;53.50;;;;;15.06;64.27;99437.16;4999460;28;45508;-75
2022/03/30 10:33:01;;;;;;;;;66.50;50.00;;;;;14.96;64.43;99431.50;4992731;28;45314;-75
2022/03/30 10:35:48;;;;;;;;;68.50;52.50;;;;;15.12;64.05;99435.94;4992567;28;47820;-80
2022/03/30 10:38:15;;;;;;;;;78.00;56.50;;;;;15.26;64.13;99426.25;4993387;28;45549;-79
2022/03/30 10:40:42;;;;;;;;;65.25;51.25;;;;;15.33;62.60;99418.75;5002936;28;45728;-80
2022/03/30 10:43:23;;;;;;;;;70.50;53.75;;;;;15.43;61.64;99419.09;4998871;28;45676;-80
2022/03/30 10:45:51;;;;;;;;;56.25;43.25;;;;;15.51;61.13;99421.28;4996402;28;45652;-80
2022/03/30 10:48:19;;;;;;;;;64.50;52.75;;;;;15.55;61.58;99417.50;4993684;28;45411;-79
2022/03/30 10:51:01;;;;;;;;;71.00;54.50;;;;;15.48;60.40;99410.81;5000421;28;45435;-79
2022/03/30 10:53:31;;;;;;;;;68.25;53.25;;;;;15.65;61.12;99408.00;5001522;28;45674;-79
2022/03/30 10:56:14;;;;;;;;;67.25;52.00;;;;;15.77;60.48;99407.31;4997951;28;46101;-80
2022/03/30 10:59:00;;;;;;;;;70.25;52.50;;;;;16.03;60.57;99401.34;4994506;28;45630;-77
2022/03/30 11:01:33;;;;;;;;;66.50;53.75;;;;;16.11;59.39;99383.06;4997825;28;45496;-80
2022/03/30 11:04:05;;;;;;;;;65.00;49.75;;;;;16.06;58.82;99377.19;5005455;28;45518;-80
2022/03/30 11:06:35;;;;;;;;;63.00;48.00;;;;;16.07;58.63;99392.25;5011261;28;45447;-79
2022/03/30 11:09:03;;;;;;;;;60.50;46.25;;;;;15.93;58.44;99367.28;4998891;28;45830;-81
2022/03/30 11:11:39;;;;;;;;;61.75;49.00;;;;;16.03;57.98;99383.56;4998604;28;45587;-80
2022/03/30 11:14:40;;;;;;;;;65.50;52.75;;;;;15.83;57.30;99389.25;5000441;28;45538;-80
2022/03/30 11:17:07;;;;;;;;;56.75;46.50;;;;;15.78;57.92;99392.19;5007985;28;45513;-78
2022/03/30 11:19:48;;;;;;;;;59.00;50.00;;;;;15.69;58.04;99382.91;5008638;28;45405;-80
2022/03/30 11:22:30;;;;;;;;;65.75;51.00;;;;;15.49;57.92;99381.44;5008090;28;45383;-79
2022/03/30 11:25:19;;;;;;;;;57.25;45.50;;;;;15.33;58.57;99392.13;5003102;28;45521;-78
2022/03/30 11:28:05;;;;;;;;;62.00;49.75;;;;;15.23;57.79;99383.84;4997670;28;47045;-80
2022/03/30 11:30:38;;;;;;;;;61.75;51.00;;;;;15.18;58.50;99377.91;4993632;28;45565;-78
2022/03/30 11:33:22;;;;;;;;;64.75;51.25;;;;;15.05;57.54;99367.13;5004092;28;45329;-80